Time;durP1;ratioP1;P1;durP2;ratioP2;P2;SDS_P1;SDS_P2;PMS_P1;PMS_P2;Temp;Humidity;BMP_temperature;BMP_pressure;BME280_temperature;BME280_humidity;BME280_pressure;Samples;Min_cycle;Max_cycle;Signal;HPM_P1;HPM_P2
2022/10/04 00:01:26;;;;;;;7.27;5.83;;;12.00;93.50;;;;;;5017906;28;20182;-87
2022/10/04 00:04:07;;;;;;;6.37;5.77;;;12.00;93.20;;;;;;5011632;28;20821;-87
2022/10/04 00:06:34;;;;;;;6.40;5.80;;;11.90;92.10;;;;;;5013160;28;20189;-87
2022/10/04 00:09:11;;;;;;;6.77;5.90;;;11.80;91.10;;;;;;5013689;28;20189;-87
2022/10/04 00:11:42;;;;;;;6.30;5.67;;;11.80;93.40;;;;;;5010856;28;20178;-87
2022/10/04 00:14:29;;;;;;;6.37;5.77;;;11.90;93.80;;;;;;5014278;28;20229;-87
2022/10/04 00:16:58;;;;;;;6.53;5.47;;;11.80;91.60;;;;;;5013947;28;20221;-87
2022/10/04 00:19:46;;;;;;;5.90;5.40;;;11.80;93.50;;;;;;5013034;28;20214;-87
2022/10/04 00:22:21;;;;;;;6.73;6.03;;;11.80;93.20;;;;;;5013311;28;20207;-87
2022/10/04 00:25:16;;;;;;;5.90;5.30;;;11.80;92.00;;;;;;5013018;28;20180;-87
2022/10/04 00:28:33;;;;;;;7.27;5.90;;;11.70;94.10;;;;;;5013267;28;20183;-87
2022/10/04 00:31:14;;;;;;;5.70;5.20;;;11.60;93.00;;;;;;4990126;28;20386;-87
2022/10/04 00:33:54;;;;;;;5.57;5.13;;;11.70;93.90;;;;;;5012788;28;20210;-87
2022/10/04 00:36:22;;;;;;;7.27;5.63;;;11.60;93.30;;;;;;5012153;28;20272;-87
2022/10/04 00:39:03;;;;;;;6.50;5.80;;;11.70;93.60;;;;;;5011807;28;20286;-87
2022/10/04 00:41:36;;;;;;;6.23;5.63;;;11.70;94.50;;;;;;5014335;28;20193;-87
2022/10/04 00:44:07;;;;;;;6.63;5.97;;;11.70;94.20;;;;;;5013914;28;20681;-87
2022/10/04 00:46:35;;;;;;;6.17;5.10;;;11.70;92.70;;;;;;5012956;28;20273;-87
2022/10/04 00:49:05;;;;;;;8.00;5.43;;;11.60;93.40;;;;;;5013005;28;20618;-87
2022/10/04 00:51:41;;;;;;;5.80;5.20;;;11.60;91.30;;;;;;5012919;28;20197;-87
2022/10/04 00:54:13;;;;;;;6.13;5.63;;;11.60;92.80;;;;;;5009779;28;20194;-87
2022/10/04 00:56:38;;;;;;;6.67;6.07;;;11.60;92.20;;;;;;5012604;28;20211;-87
2022/10/04 00:59:13;;;;;;;6.63;5.97;;;11.40;93.70;;;;;;5012627;28;20249;-87
2022/10/04 01:01:38;;;;;;;5.73;5.23;;;11.30;95.80;;;;;;5012626;28;20738;-88
2022/10/04 01:04:11;;;;;;;6.43;5.83;;;11.30;96.30;;;;;;5012918;28;20184;-87
2022/10/04 01:06:38;;;;;;;6.13;5.50;;;11.30;95.70;;;;;;5013093;28;20181;-87
2022/10/04 01:09:08;;;;;;;6.97;6.33;;;11.30;95.90;;;;;;5005481;28;20668;-89
2022/10/04 01:11:43;;;;;;;6.70;6.13;;;11.30;95.90;;;;;;5028490;28;20185;-87
2022/10/04 01:14:52;;;;;;;6.70;6.20;;;11.30;96.90;;;;;;5047692;28;20162;-87
2022/10/04 01:17:18;;;;;;;7.20;6.27;;;11.20;95.80;;;;;;4965786;29;20293;-88
2022/10/04 01:19:52;;;;;;;7.20;5.80;;;11.00;97.00;;;;;;4998948;28;20283;-87
2022/10/04 01:22:39;;;;;;;7.80;6.80;;;10.70;98.80;;;;;;5014197;28;20683;-88
2022/10/04 01:25:05;;;;;;;7.07;6.40;;;10.60;99.90;;;;;;5006976;28;20220;-87
2022/10/04 01:27:38;;;;;;;9.23;6.33;;;10.40;99.90;;;;;;5015318;28;20250;-89
2022/10/04 01:30:09;;;;;;;6.97;6.37;;;10.30;99.90;;;;;;5020470;28;20179;-89
2022/10/04 01:32:37;;;;;;;7.87;6.33;;;10.30;99.90;;;;;;5035450;28;20200;-89
2022/10/04 01:35:05;;;;;;;7.37;6.60;;;10.30;99.90;;;;;;5008733;28;20219;-87
2022/10/04 01:37:31;;;;;;;9.07;6.40;;;10.40;99.90;;;;;;5012910;28;20189;-87
2022/10/04 01:39:57;;;;;;;8.67;5.70;;;10.50;99.90;;;;;;5010370;28;20691;-87
2022/10/04 01:42:35;;;;;;;6.40;5.80;;;10.50;99.90;;;;;;5012238;28;20219;-87
2022/10/04 01:45:20;;;;;;;6.97;6.37;;;10.60;99.90;;;;;;5009426;28;20628;-88
2022/10/04 01:47:54;;;;;;;6.07;5.47;;;10.80;99.90;;;;;;4992981;28;20208;-87
2022/10/04 01:50:58;;;;;;;9.40;5.40;;;10.80;99.00;;;;;;5012433;28;20651;-86
2022/10/04 01:53:35;;;;;;;7.23;5.83;;;11.00;99.10;;;;;;4971210;28;20222;-87
2022/10/04 01:56:10;;;;;;;6.50;5.97;;;11.00;98.40;;;;;;4991489;28;20201;-86
2022/10/04 01:58:52;;;;;;;6.00;5.50;;;11.00;97.90;;;;;;5011649;28;20239;-86
2022/10/04 02:01:30;;;;;;;6.30;5.80;;;11.00;97.00;;;;;;5013726;28;20283;-87
2022/10/04 02:04:00;;;;;;;7.30;5.80;;;11.10;96.80;;;;;;5012642;28;20212;-86
2022/10/04 02:06:27;;;;;;;6.40;5.57;;;11.10;97.00;;;;;;5012991;28;20267;-86
2022/10/04 02:08:56;;;;;;;6.73;6.13;;;11.10;96.80;;;;;;5015951;28;20715;-86
2022/10/04 02:11:23;;;;;;;6.07;5.43;;;11.10;95.60;;;;;;5024119;28;20200;-86
2022/10/04 02:13:52;;;;;;;6.33;5.70;;;11.10;95.80;;;;;;5014846;28;20196;-86
2022/10/04 02:16:20;;;;;;;6.00;5.40;;;11.10;95.50;;;;;;5012214;28;20192;-86
2022/10/04 02:18:46;;;;;;;6.30;5.80;;;11.10;96.60;;;;;;5012131;28;20318;-86
2022/10/04 02:21:13;;;;;;;6.00;5.50;;;11.00;95.90;;;;;;5011496;28;20797;-85
2022/10/04 02:23:40;;;;;;;5.43;5.00;;;10.80;95.10;;;;;;5011915;28;20197;-87
2022/10/04 02:26:08;;;;;;;6.17;5.57;;;10.90;96.40;;;;;;5017818;28;20253;-88
2022/10/04 02:28:34;;;;;;;6.23;5.57;;;10.90;96.30;;;;;;5012632;28;20196;-86
2022/10/04 02:33:49;;;;;;;6.20;5.60;;;11.00;95.60;;;;;;5017024;28;20219;-87
2022/10/04 02:36:16;;;;;;;7.30;5.50;;;10.90;95.50;;;;;;5031489;28;20200;-87
2022/10/04 02:39:00;;;;;;;6.73;6.07;;;11.00;95.70;;;;;;5018836;28;20216;-87
2022/10/04 02:41:47;;;;;;;6.60;6.00;;;11.00;95.50;;;;;;5015690;28;20184;-87
2022/10/04 02:44:28;;;;;;;5.93;5.17;;;11.00;94.70;;;;;;5015490;28;20475;-86
2022/10/04 02:47:13;;;;;;;6.07;5.47;;;10.90;94.80;;;;;;5015633;28;20420;-87
2022/10/04 02:49:54;;;;;;;5.77;5.27;;;10.80;95.20;;;;;;5013790;28;20714;-87
2022/10/04 02:52:44;;;;;;;6.37;5.77;;;10.90;95.00;;;;;;5016050;28;20212;-87
2022/10/04 02:55:21;;;;;;;5.10;4.60;;;10.80;94.10;;;;;;5002404;28;20216;-87
2022/10/04 02:57:48;;;;;;;6.10;5.53;;;10.80;95.20;;;;;;5014590;28;20258;-87
2022/10/04 03:00:14;;;;;;;5.07;4.67;;;10.70;92.90;;;;;;5015777;28;20470;-87
2022/10/04 03:02:40;;;;;;;6.00;5.50;;;10.60;95.80;;;;;;5013812;28;20224;-87
2022/10/04 03:05:12;;;;;;;5.90;5.27;;;10.70;96.10;;;;;;5014130;28;20197;-87
2022/10/04 03:07:38;;;;;;;7.77;4.70;;;10.70;95.60;;;;;;5017943;28;20267;-87
2022/10/04 03:10:09;;;;;;;5.77;5.27;;;10.80;95.50;;;;;;5008271;28;20212;-87
2022/10/04 03:12:37;;;;;;;5.70;5.17;;;10.80;95.00;;;;;;5009979;28;20248;-87
2022/10/04 03:15:08;;;;;;;5.30;4.80;;;10.60;93.50;;;;;;5001391;28;20180;-87
2022/10/04 03:17:34;;;;;;;5.43;4.93;;;10.70;94.90;;;;;;5013800;28;20579;-88
2022/10/04 03:20:01;;;;;;;5.53;5.07;;;10.70;95.30;;;;;;5015062;28;20215;-87
2022/10/04 03:22:27;;;;;;;5.20;4.80;;;10.70;94.70;;;;;;5014742;28;20209;-87
2022/10/04 03:24:56;;;;;;;5.60;5.20;;;10.60;94.90;;;;;;5013179;28;20292;-87
2022/10/04 03:27:26;;;;;;;5.37;4.93;;;10.60;95.40;;;;;;5016852;28;20197;-87
2022/10/04 03:29:53;;;;;;;5.40;5.00;;;10.60;94.70;;;;;;5010578;28;20546;-87
2022/10/04 03:32:19;;;;;;;5.67;5.17;;;10.50;94.40;;;;;;5009230;28;20275;-87
2022/10/04 03:34:56;;;;;;;5.80;5.30;;;10.50;95.10;;;;;;5013857;28;20227;-87
2022/10/04 03:37:23;;;;;;;9.40;5.93;;;10.50;95.60;;;;;;5015304;28;20203;-87
2022/10/04 03:39:51;;;;;;;7.37;5.30;;;10.50;93.50;;;;;;5012839;28;20227;-87
2022/10/04 03:42:18;;;;;;;5.23;4.80;;;10.40;94.80;;;;;;5013188;28;20216;-87
2022/10/04 03:44:50;;;;;;;6.00;5.40;;;10.40;95.40;;;;;;5014594;28;20185;-87
2022/10/04 03:47:24;;;;;;;9.00;6.83;;;10.40;95.90;;;;;;5015160;28;20177;-87
2022/10/04 03:49:51;;;;;;;11.13;7.47;;;10.50;97.50;;;;;;5013836;28;20196;-87
2022/10/04 03:52:25;;;;;;;9.53;6.97;;;10.60;97.80;;;;;;5013089;28;20224;-89
2022/10/04 03:54:53;;;;;;;9.73;8.23;;;10.60;98.10;;;;;;5014764;28;20228;-87
2022/10/04 03:57:19;;;;;;;9.37;8.17;;;10.60;98.70;;;;;;5014694;28;20197;-87
2022/10/04 03:59:45;;;;;;;10.27;9.07;;;10.50;99.50;;;;;;5014074;28;20344;-87
2022/10/04 04:02:32;;;;;;;10.03;8.27;;;10.60;99.70;;;;;;5019308;28;20700;-87
2022/10/04 04:05:04;;;;;;;11.17;9.00;;;10.60;99.90;;;;;;5014703;28;20184;-87
2022/10/04 04:07:35;;;;;;;12.43;11.50;;;10.60;99.90;;;;;;5014817;28;20173;-87
2022/10/04 04:10:29;;;;;;;9.77;9.00;;;10.60;99.90;;;;;;5014580;28;20174;-87
2022/10/04 04:12:57;;;;;;;9.37;8.63;;;10.60;99.90;;;;;;5009440;28;20223;-87
2022/10/04 04:15:29;;;;;;;9.57;8.67;;;10.60;99.90;;;;;;5013443;28;20181;-87
2022/10/04 04:17:57;;;;;;;8.23;7.43;;;10.50;99.90;;;;;;5033769;28;20171;-89
2022/10/04 04:20:36;;;;;;;7.87;7.23;;;10.50;99.90;;;;;;5036265;28;20220;-87
2022/10/04 04:23:11;;;;;;;8.97;8.17;;;10.50;99.90;;;;;;5004149;28;20219;-87
2022/10/04 04:25:40;;;;;;;8.40;7.70;;;10.40;99.90;;;;;;5014582;28;20190;-88
2022/10/04 04:28:30;;;;;;;14.80;7.63;;;10.40;99.90;;;;;;5012778;28;20192;-87
2022/10/04 04:31:12;;;;;;;8.40;7.70;;;10.40;99.90;;;;;;5014309;28;20215;-87
2022/10/04 04:33:55;;;;;;;7.70;7.10;;;10.40;99.90;;;;;;5013571;28;20209;-87
2022/10/04 04:36:20;;;;;;;8.00;7.30;;;10.50;99.90;;;;;;5012166;28;20199;-87
2022/10/04 04:41:34;;;;;;;9.00;8.10;;;10.60;99.90;;;;;;4995644;28;20548;-87
2022/10/04 04:44:00;;;;;;;8.53;7.83;;;10.60;99.90;;;;;;5013153;28;20196;-87
2022/10/04 04:46:27;;;;;;;9.10;8.40;;;10.60;99.90;;;;;;5013583;28;20192;-87
2022/10/04 04:49:02;;;;;;;9.80;8.90;;;10.70;99.90;;;;;;5013747;28;20287;-87
2022/10/04 04:51:30;;;;;;;9.57;8.77;;;10.70;99.90;;;;;;5013451;28;20477;-87
2022/10/04 04:53:56;;;;;;;8.83;8.13;;;10.60;99.90;;;;;;5014136;28;20660;-87
2022/10/04 04:56:25;;;;;;;8.27;7.63;;;10.50;99.90;;;;;;5013752;28;20201;-88
2022/10/04 04:58:53;;;;;;;8.70;8.00;;;10.50;99.90;;;;;;5013392;28;20220;-87
2022/10/04 05:01:34;;;;;;;9.03;8.23;;;10.50;99.90;;;;;;5012335;28;20192;-87
2022/10/04 05:04:07;;;;;;;9.47;8.57;;;10.60;99.90;;;;;;5011977;28;20554;-87
2022/10/04 05:06:35;;;;;;;10.83;8.97;;;10.70;99.90;;;;;;5013199;28;20226;-87
2022/10/04 05:09:02;;;;;;;9.17;8.33;;;10.70;99.90;;;;;;5014256;28;20612;-86
2022/10/04 05:11:35;;;;;;;9.07;8.37;;;10.60;99.90;;;;;;5008584;28;20201;-87
2022/10/04 05:14:06;;;;;;;9.30;8.40;;;10.60;99.90;;;;;;5012188;28;20196;-86
2022/10/04 05:16:48;;;;;;;9.43;8.60;;;10.60;99.90;;;;;;5012717;28;20208;-87
2022/10/04 05:19:36;;;;;;;9.17;8.27;;;10.60;99.90;;;;;;5008509;28;20224;-87
2022/10/04 05:22:16;;;;;;;17.03;9.90;;;10.70;99.90;;;;;;5012843;28;20216;-87
2022/10/04 05:24:45;;;;;;;8.93;8.13;;;10.70;99.90;;;;;;5002256;28;20189;-87
2022/10/04 05:27:25;;;;;;;11.17;10.07;;;10.70;99.90;;;;;;5011972;28;20185;-87
2022/10/04 05:30:02;;;;;;;9.67;8.77;;;10.70;99.90;;;;;;5013247;28;20195;-87
2022/10/04 05:32:43;;;;;;;11.00;10.03;;;10.70;99.90;;;;;;5000843;28;20224;-87
2022/10/04 05:35:17;;;;;;;13.03;10.87;;;10.70;99.90;;;;;;5012575;28;20184;-87
2022/10/04 05:38:02;;;;;;;10.90;9.90;;;10.70;99.90;;;;;;5014188;28;20207;-87
2022/10/04 05:40:40;;;;;;;11.40;10.20;;;10.60;99.90;;;;;;5017327;28;20619;-87
2022/10/04 05:43:34;;;;;;;11.13;9.43;;;10.50;99.90;;;;;;5035884;28;20215;-87
2022/10/04 05:46:21;;;;;;;11.17;9.97;;;10.60;99.90;;;;;;5032412;28;20176;-87
2022/10/04 05:49:11;;;;;;;10.00;9.03;;;10.60;99.90;;;;;;5014816;28;20181;-86
2022/10/04 05:51:53;;;;;;;10.77;9.73;;;10.60;99.90;;;;;;5006125;28;20188;-87
2022/10/04 05:54:23;;;;;;;12.43;10.57;;;10.70;99.90;;;;;;5012949;28;20267;-87
2022/10/04 05:56:55;;;;;;;10.97;9.87;;;10.60;99.90;;;;;;5013333;28;20618;-86
2022/10/04 05:59:23;;;;;;;10.20;9.10;;;10.60;99.90;;;;;;5007158;28;20201;-87
2022/10/04 06:01:58;;;;;;;10.87;9.87;;;10.60;99.90;;;;;;5008865;28;20617;-86
2022/10/04 06:04:50;;;;;;;14.30;10.23;;;10.60;99.90;;;;;;5013170;28;20246;-87
2022/10/04 06:07:33;;;;;;;9.30;8.40;;;10.60;99.90;;;;;;5013001;28;20177;-87
2022/10/04 06:10:29;;;;;;;10.27;9.07;;;10.60;99.90;;;;;;5014287;28;20200;-87
2022/10/04 06:13:02;;;;;;;13.27;10.37;;;10.70;99.90;;;;;;4992460;28;20213;-89
2022/10/04 06:15:47;;;;;;;12.20;10.17;;;10.60;99.90;;;;;;5004904;28;20192;-88
2022/10/04 06:18:31;;;;;;;11.93;10.70;;;10.50;99.90;;;;;;5003218;28;20804;-89
2022/10/04 06:21:09;;;;;;;13.77;10.83;;;10.40;99.90;;;;;;5014138;28;20188;-88
2022/10/04 06:23:43;;;;;;;13.43;11.67;;;10.30;99.90;;;;;;5012599;28;20204;-87
2022/10/04 06:26:17;;;;;;;14.33;10.90;;;10.00;99.90;;;;;;5012770;28;20183;-88
2022/10/04 06:28:55;;;;;;;13.97;10.67;;;10.00;99.90;;;;;;5013392;28;20170;-87
2022/10/04 06:31:43;;;;;;;16.47;12.00;;;10.10;99.90;;;;;;5005718;28;20379;-87
2022/10/04 06:34:18;;;;;;;17.13;12.63;;;10.20;99.90;;;;;;5008866;28;20292;-88
2022/10/04 06:37:11;;;;;;;19.17;13.00;;;9.90;99.90;;;;;;5013285;28;20235;-88
2022/10/04 06:39:55;;;;;;;13.13;11.00;;;9.80;99.90;;;;;;5001851;28;20695;-89
2022/10/04 06:42:54;;;;;;;16.57;12.13;;;9.70;99.90;;;;;;4994111;28;20199;-86
2022/10/04 06:45:46;;;;;;;12.67;11.03;;;9.70;99.90;;;;;;5008971;28;20532;-86
2022/10/04 06:48:35;;;;;;;18.60;12.20;;;9.70;99.90;;;;;;4997621;28;20685;-84
2022/10/04 06:51:25;;;;;;;12.33;10.80;;;9.80;99.90;;;;;;5016329;28;20216;-85
2022/10/04 06:54:00;;;;;;;13.63;11.87;;;9.80;99.90;;;;;;5021151;28;20191;-86
2022/10/04 06:56:33;;;;;;;12.87;10.80;;;10.00;99.90;;;;;;5018602;28;20206;-86
2022/10/04 06:59:23;;;;;;;12.83;11.63;;;10.10;99.90;;;;;;5018058;28;20242;-85
2022/10/04 07:01:56;;;;;;;12.53;11.23;;;10.20;99.90;;;;;;5019933;28;20216;-86
2022/10/04 07:04:51;;;;;;;12.60;11.23;;;10.20;99.90;;;;;;5022334;28;20157;-86
2022/10/04 07:07:26;;;;;;;13.50;12.20;;;10.20;99.90;;;;;;5015417;28;20204;-86
2022/10/04 07:09:54;;;;;;;10.63;9.70;;;10.10;99.90;;;;;;5019075;28;20261;-85
2022/10/04 07:12:20;;;;;;;10.20;9.10;;;10.00;99.90;;;;;;5012356;28;20216;-85
2022/10/04 07:14:51;;;;;;;10.23;9.23;;;10.10;99.90;;;;;;5014578;28;20202;-85
2022/10/04 07:17:39;;;;;;;9.67;8.87;;;10.20;99.90;;;;;;5014808;28;20445;-86
2022/10/04 07:20:06;;;;;;;8.33;7.63;;;10.20;99.90;;;;;;5010861;28;20299;-85
2022/10/04 07:22:59;;;;;;;13.47;12.27;;;10.20;99.90;;;;;;5014469;28;20670;-86
2022/10/04 07:25:29;;;;;;;9.73;8.93;;;10.30;99.90;;;;;;5012830;28;20197;-86
2022/10/04 07:31:22;;;;;;;9.07;7.90;;;10.60;99.90;;;;;;5013242;28;20220;-86
2022/10/04 07:34:10;;;;;;;9.10;8.23;;;10.70;99.90;;;;;;5017471;28;20279;-87
2022/10/04 07:36:39;;;;;;;10.23;9.23;;;10.70;99.90;;;;;;5018808;28;20181;-86
2022/10/04 07:39:14;;;;;;;8.43;7.73;;;10.60;99.90;;;;;;5017897;28;20204;-86
2022/10/04 07:41:51;;;;;;;9.63;8.63;;;10.70;99.90;;;;;;5017086;28;20187;-86
2022/10/04 07:44:21;;;;;;;8.60;7.93;;;10.80;99.90;;;;;;5014386;28;20364;-85
2022/10/04 07:46:53;;;;;;;8.43;7.77;;;10.90;99.90;;;;;;5018455;28;20199;-86
2022/10/04 07:49:21;;;;;;;9.60;8.70;;;11.00;99.90;;;;;;5014286;28;20398;-83
2022/10/04 07:52:17;;;;;;;9.83;8.93;;;11.00;99.90;;;;;;5016650;28;20220;-86
2022/10/04 07:55:04;;;;;;;8.30;7.63;;;11.00;99.90;;;;;;5014657;28;20193;-85
2022/10/04 07:57:44;;;;;;;9.37;8.63;;;11.10;99.90;;;;;;5014318;28;20185;-85
2022/10/04 08:00:48;;;;;;;10.80;8.90;;;11.10;99.90;;;;;;5015975;28;20620;-86
2022/10/04 08:03:45;;;;;;;10.20;9.30;;;10.70;99.90;;;;;;4964423;28;20936;-85
2022/10/04 08:06:32;;;;;;;9.90;9.00;;;10.40;99.90;;;;;;5016478;28;20188;-86
2022/10/04 08:09:25;;;;;;;9.93;9.13;;;10.40;99.90;;;;;;5006576;28;20204;-85
2022/10/04 08:12:25;;;;;;;11.87;10.67;;;10.70;99.90;;;;;;5014026;28;20217;-86
2022/10/04 08:15:09;;;;;;;9.83;9.03;;;10.50;99.90;;;;;;5013454;28;20234;-85
2022/10/04 08:18:07;;;;;;;13.00;11.87;;;10.60;99.90;;;;;;5017470;28;20244;-86
2022/10/04 08:20:40;;;;;;;11.97;10.97;;;10.70;99.90;;;;;;4979654;28;20229;-86
2022/10/04 08:23:40;;;;;;;13.30;12.10;;;11.00;99.90;;;;;;5017711;28;20216;-85
2022/10/04 08:26:40;;;;;;;11.40;10.30;;;11.00;99.90;;;;;;5017480;28;20189;-85
2022/10/04 08:29:42;;;;;;;13.37;12.27;;;11.30;99.90;;;;;;5018307;28;20182;-85
2022/10/04 08:32:28;;;;;;;14.90;13.60;;;11.20;99.90;;;;;;5016648;28;20233;-86
2022/10/04 08:35:22;;;;;;;13.60;12.30;;;11.30;99.90;;;;;;5021708;28;20196;-85
2022/10/04 08:37:59;;;;;;;15.27;13.87;;;11.40;99.90;;;;;;5015680;28;20253;-86
2022/10/04 08:40:56;;;;;;;13.47;12.27;;;11.30;99.90;;;;;;5015569;28;20695;-85
2022/10/04 08:43:41;;;;;;;13.27;11.97;;;11.40;99.90;;;;;;5018687;28;20427;-85
2022/10/04 08:46:16;;;;;;;15.37;13.77;;;11.60;99.90;;;;;;5016821;28;20748;-85
2022/10/04 08:49:09;;;;;;;14.23;12.13;;;11.70;99.90;;;;;;5017576;28;20197;-85
2022/10/04 08:51:44;;;;;;;12.67;11.37;;;11.70;99.90;;;;;;5014996;28;20229;-85
2022/10/04 08:54:25;;;;;;;11.57;10.47;;;11.70;99.90;;;;;;5018024;28;20268;-86
2022/10/04 08:57:14;;;;;;;12.90;11.70;;;11.70;99.90;;;;;;5009383;28;20194;-85
2022/10/04 09:00:19;;;;;;;12.77;11.67;;;11.60;99.90;;;;;;5017250;28;20236;-85
2022/10/04 09:03:03;;;;;;;11.87;10.77;;;11.70;99.90;;;;;;4999553;28;20226;-85
2022/10/04 09:05:42;;;;;;;13.10;11.83;;;11.90;99.90;;;;;;5016504;28;20185;-85
2022/10/04 09:08:16;;;;;;;13.27;12.17;;;12.00;99.90;;;;;;5015796;28;20192;-85
2022/10/04 09:11:13;;;;;;;14.27;12.77;;;11.80;99.90;;;;;;5015834;28;20244;-85
2022/10/04 09:14:06;;;;;;;13.17;11.97;;;11.80;99.90;;;;;;5015375;28;20214;-85
2022/10/04 09:16:52;;;;;;;11.90;10.93;;;11.80;99.90;;;;;;5016339;28;20246;-85
2022/10/04 09:19:30;;;;;;;12.60;11.50;;;11.60;99.90;;;;;;5011692;28;20216;-85
2022/10/04 09:21:56;;;;;;;12.10;11.10;;;12.00;99.90;;;;;;5014910;28;20209;-85
2022/10/04 09:24:33;;;;;;;12.87;11.83;;;12.00;99.90;;;;;;5014870;28;20182;-85
2022/10/04 09:27:18;;;;;;;12.47;11.27;;;12.20;99.60;;;;;;5015782;28;20182;-85
2022/10/04 09:30:16;;;;;;;13.47;12.30;;;12.40;99.00;;;;;;5017491;28;20181;-85
2022/10/04 09:33:03;;;;;;;13.90;12.23;;;12.30;99.90;;;;;;5015444;28;20225;-85
2022/10/04 09:35:47;;;;;;;13.20;12.10;;;12.40;99.90;;;;;;5015539;28;20181;-85
2022/10/04 09:39:02;;;;;;;12.70;11.43;;;12.20;99.90;;;;;;5015698;28;20189;-85
2022/10/04 09:41:39;;;;;;;13.83;12.47;;;12.00;99.90;;;;;;4993031;28;20209;-84
2022/10/04 09:44:26;;;;;;;13.03;11.93;;;12.00;99.90;;;;;;5014214;28;20191;-85
2022/10/04 09:46:54;;;;;;;12.83;11.63;;;12.20;99.90;;;;;;5017186;28;20271;-85
2022/10/04 09:49:55;;;;;;;13.97;11.47;;;12.30;99.90;;;;;;5015929;28;20183;-85
2022/10/04 09:52:54;;;;;;;13.17;11.43;;;12.50;99.90;;;;;;5020735;28;20206;-86
2022/10/04 09:56:10;;;;;;;12.27;11.27;;;12.80;98.00;;;;;;5034319;28;20174;-86
2022/10/04 09:58:57;;;;;;;13.97;12.70;;;12.80;97.50;;;;;;4957970;29;20231;-85
2022/10/04 10:01:23;;;;;;;13.30;12.03;;;12.90;97.70;;;;;;4941607;29;20213;-85
2022/10/04 10:04:02;;;;;;;68.97;61.30;;;13.20;96.50;;;;;;4993784;28;20205;-85
2022/10/04 10:06:33;;;;;;;12.43;11.33;;;13.50;95.50;;;;;;5020044;28;20177;-85
2022/10/04 10:15:10;;;;;;;11.13;10.20;;;14.80;90.30;;;;;;5019180;28;20207;-85
2022/10/04 10:17:55;;;;;;;12.07;11.00;;;14.90;90.20;;;;;;5015940;28;20263;-86
2022/10/04 10:20:25;;;;;;;12.23;11.23;;;15.00;88.10;;;;;;5013835;28;20201;-85
2022/10/04 10:23:12;;;;;;;11.90;10.93;;;15.10;86.40;;;;;;5014738;28;20207;-85
2022/10/04 10:26:06;;;;;;;13.23;11.93;;;15.30;86.10;;;;;;5011367;28;20178;-85
2022/10/04 10:28:31;;;;;;;11.60;10.40;;;14.60;90.50;;;;;;5014886;28;20188;-85
2022/10/04 10:31:31;;;;;;;12.17;11.07;;;14.50;91.80;;;;;;5013865;28;20571;-85
2022/10/04 10:34:18;;;;;;;11.13;9.90;;;14.80;89.60;;;;;;5005473;28;20190;-85
2022/10/04 10:37:15;;;;;;;11.17;10.23;;;15.40;87.80;;;;;;5012713;28;20183;-85
2022/10/04 10:40:15;;;;;;;11.27;10.30;;;15.80;84.70;;;;;;5014791;28;20291;-85
2022/10/04 10:43:19;;;;;;;10.40;9.60;;;16.20;83.10;;;;;;5014118;28;20228;-86
2022/10/04 10:46:03;;;;;;;11.10;10.07;;;16.30;80.80;;;;;;4974499;28;20259;-85
2022/10/04 10:48:50;;;;;;;12.20;11.00;;;16.20;81.40;;;;;;5011648;28;20731;-86
2022/10/04 10:51:33;;;;;;;10.60;9.73;;;16.50;79.90;;;;;;5009566;28;20189;-85
2022/10/04 10:54:24;;;;;;;10.90;9.90;;;16.70;78.90;;;;;;5014449;28;20212;-85
2022/10/04 10:57:12;;;;;;;10.90;10.00;;;16.80;78.00;;;;;;5014501;28;20213;-85
2022/10/04 10:59:48;;;;;;;11.10;10.20;;;16.90;77.60;;;;;;5015327;28;20208;-85
2022/10/04 11:02:47;;;;;;;11.53;10.53;;;17.00;78.20;;;;;;5016849;28;20207;-85
2022/10/04 11:05:44;;;;;;;10.53;9.53;;;17.10;77.60;;;;;;5014594;28;20790;-85
2022/10/04 11:08:54;;;;;;;11.68;10.65;;;17.10;78.30;;;;;;5015626;28;20193;-86
2022/10/04 11:11:40;;;;;;;11.00;9.90;;;17.40;78.70;;;;;;5017648;28;20269;-85
2022/10/04 11:14:33;;;;;;;10.60;9.65;;;17.00;79.10;;;;;;5017283;28;20217;-86
2022/10/04 11:17:19;;;;;;;11.57;10.73;;;16.80;81.10;;;;;;5016183;28;20180;-85
2022/10/04 11:20:23;;;;;;;10.75;9.95;;;16.90;80.30;;;;;;5016254;28;20264;-86
2022/10/04 11:22:59;;;;;;;10.63;9.63;;;17.20;78.70;;;;;;5031531;28;20249;-85
2022/10/04 11:25:43;;;;;;;11.15;9.75;;;17.60;76.80;;;;;;5014505;28;20173;-85
2022/10/04 11:28:15;;;;;;;9.90;8.98;;;18.30;73.30;;;;;;5016690;28;20204;-85
2022/10/04 11:30:50;;;;;;;10.40;9.52;;;18.70;70.40;;;;;;5017159;28;20189;-86
2022/10/04 11:33:51;;;;;;;11.32;9.43;;;19.00;69.70;;;;;;5021557;28;20205;-85
2022/10/04 11:36:19;;;;;;;9.20;8.40;;;18.20;70.00;;;;;;4989574;28;20227;-86
2022/10/04 11:38:47;;;;;;;10.60;9.60;;;17.80;73.20;;;;;;5016119;28;20182;-85
2022/10/04 11:41:27;;;;;;;9.95;9.05;;;18.30;72.10;;;;;;5017151;28;20182;-86
2022/10/04 11:44:14;;;;;;;10.13;9.23;;;18.70;70.90;;;;;;5011094;28;20324;-86
2022/10/04 11:47:22;;;;;;;10.10;9.15;;;19.10;68.20;;;;;;5015190;28;20198;-85
2022/10/04 11:50:00;;;;;;;9.70;8.80;;;19.40;66.10;;;;;;5003485;28;20206;-85
2022/10/04 11:52:49;;;;;;;10.25;9.35;;;19.20;67.20;;;;;;5021335;28;20292;-85
2022/10/04 11:55:41;;;;;;;9.65;8.65;;;19.00;67.10;;;;;;5014569;28;20241;-84
2022/10/04 11:58:24;;;;;;;10.27;9.38;;;19.00;67.60;;;;;;5009212;28;20189;-85
2022/10/04 12:01:13;;;;;;;9.27;8.30;;;19.50;66.80;;;;;;5013845;28;20229;-85
2022/10/04 12:04:10;;;;;;;9.20;8.40;;;19.80;64.50;;;;;;5004499;28;20197;-85
2022/10/04 12:06:53;;;;;;;9.45;8.65;;;19.70;63.70;;;;;;5016230;28;20181;-85
2022/10/04 12:09:53;;;;;;;8.63;7.93;;;20.10;63.60;;;;;;5015915;28;20206;-85
2022/10/04 12:12:48;;;;;;;8.77;7.95;;;20.20;63.10;;;;;;5023243;28;20588;-85
2022/10/04 12:15:21;;;;;;;8.82;8.02;;;20.50;61.00;;;;;;5010852;28;20242;-85
2022/10/04 12:18:04;;;;;;;8.88;7.97;;;20.40;61.80;;;;;;5016127;28;20191;-85
2022/10/04 12:20:50;;;;;;;8.30;7.47;;;20.20;61.90;;;;;;5009322;28;20193;-85
2022/10/04 12:23:15;;;;;;;8.50;7.80;;;20.40;62.30;;;;;;5014886;28;20702;-85
2022/10/04 12:25:52;;;;;;;9.13;8.35;;;20.70;60.40;;;;;;5009663;28;20190;-85
2022/10/04 12:28:46;;;;;;;8.70;8.00;;;20.60;59.90;;;;;;5014952;28;20196;-85
2022/10/04 12:31:25;;;;;;;9.05;7.18;;;20.10;61.90;;;;;;5014027;28;20283;-85
2022/10/04 12:34:14;;;;;;;8.80;8.10;;;21.00;60.40;;;;;;5011548;28;20197;-85
2022/10/04 12:36:51;;;;;;;7.18;6.57;;;21.90;56.10;;;;;;5018185;28;20181;-86
2022/10/04 12:39:29;;;;;;;9.90;8.38;;;22.40;55.20;;;;;;5035467;28;20681;-86
2022/10/04 12:42:17;;;;;;;9.18;8.38;;;22.70;54.00;;;;;;5027378;28;20777;-86
2022/10/04 12:45:18;;;;;;;8.40;7.68;;;23.10;51.70;;;;;;5011763;28;20189;-85
2022/10/04 12:47:59;;;;;;;8.63;7.78;;;23.20;51.80;;;;;;5015793;28;20177;-85
2022/10/04 12:50:43;;;;;;;9.02;8.07;;;23.60;49.40;;;;;;5011044;28;20244;-86
2022/10/04 12:53:31;;;;;;;8.55;7.75;;;22.80;52.00;;;;;;5012459;28;20368;-85
2022/10/04 12:56:05;;;;;;;7.72;7.03;;;22.00;55.00;;;;;;5012738;28;20177;-85
2022/10/04 12:58:52;;;;;;;8.00;7.20;;;22.00;55.90;;;;;;5012851;28;20187;-85
2022/10/04 13:01:51;;;;;;;7.93;7.22;;;22.90;53.20;;;;;;5002781;28;20669;-85
2022/10/04 13:04:28;;;;;;;7.55;6.80;;;23.10;51.70;;;;;;4987134;28;20212;-86
2022/10/04 13:07:13;;;;;;;7.88;7.00;;;22.70;52.80;;;;;;5010374;28;20188;-86
2022/10/04 13:10:17;;;;;;;7.55;6.95;;;22.90;52.70;;;;;;5012802;28;20267;-86
2022/10/04 13:13:23;;;;;;;8.02;7.28;;;22.90;52.10;;;;;;5012754;28;20204;-86
2022/10/04 13:16:04;;;;;;;7.90;7.30;;;23.50;51.10;;;;;;5010806;28;20659;-85
2022/10/04 13:18:29;;;;;;;7.97;6.95;;;24.10;48.50;;;;;;5011652;28;20181;-86
2022/10/04 13:21:02;;;;;;;7.15;6.40;;;24.50;47.70;;;;;;5012377;28;20255;-86
2022/10/04 13:23:46;;;;;;;6.95;6.35;;;24.80;45.50;;;;;;5014093;28;20239;-86
2022/10/04 13:26:27;;;;;;;8.18;7.53;;;25.20;44.70;;;;;;5014041;28;20174;-86
2022/10/04 13:29:07;;;;;;;7.80;7.00;;;24.10;46.10;;;;;;5012507;28;20596;-86
2022/10/04 13:32:02;;;;;;;7.63;6.93;;;24.70;45.70;;;;;;5008821;28;20199;-86
2022/10/04 13:34:34;;;;;;;7.43;6.82;;;24.30;47.70;;;;;;4998612;28;20201;-86
2022/10/04 13:37:17;;;;;;;7.78;7.20;;;24.50;47.00;;;;;;5011147;28;20685;-86
2022/10/04 13:40:04;;;;;;;7.25;6.60;;;23.80;47.90;;;;;;5008203;28;20245;-86
2022/10/04 13:42:57;;;;;;;6.85;6.25;;;23.60;47.30;;;;;;5004805;28;20360;-86
2022/10/04 13:45:48;;;;;;;6.88;6.35;;;24.20;48.00;;;;;;5011859;28;20261;-85
2022/10/04 13:48:28;;;;;;;8.02;7.32;;;24.10;45.50;;;;;;5017020;28;20208;-86
2022/10/04 13:51:15;;;;;;;7.75;7.15;;;24.40;45.80;;;;;;5011133;28;20193;-86
2022/10/04 13:57:04;;;;;;;7.72;6.47;;;24.30;48.40;;;;;;5009656;28;20268;-86
2022/10/04 13:59:38;;;;;;;6.40;5.82;;;25.00;44.10;;;;;;5010852;28;20193;-86
2022/10/04 14:02:42;;;;;;;7.57;5.88;;;25.40;40.00;;;;;;5011000;28;20571;-86
2022/10/04 14:05:50;;;;;;;6.82;6.18;;;26.10;38.40;;;;;;5000470;28;20569;-86